Time;durP1;ratioP1;P1;durP2;ratioP2;P2;SDS_P1;SDS_P2;PMS_P1;PMS_P2;Temp;Humidity;BMP_temperature;BMP_pressure;BME280_temperature;BME280_humidity;BME280_pressure;Samples;Min_cycle;Max_cycle;Signal;HPM_P1;HPM_P2
2023/04/03 00:00:07;;;;;;;0.20;0.20;;;;;;;;;;4800655;29;20054;-83
2023/04/03 00:06:12;;;;;;;0.20;0.20;;;;;;;;;;4805960;29;20377;-82
2023/04/03 00:21:06;;;;;;;0.20;0.20;;;;;;;;;;4786765;29;20074;-82
2023/04/03 00:23:32;;;;;;;0.20;0.20;;;;;;;;;;4803732;29;20517;-82
2023/04/03 00:26:01;;;;;;;0.20;0.20;;;;;;;;;;4802041;29;20166;-83
2023/04/03 00:28:28;;;;;;;0.20;0.20;;;;;;;;;;4804970;29;20528;-82
2023/04/03 00:30:54;;;;;;;0.20;0.20;;;;;;;;;;4802912;29;20078;-82
2023/04/03 00:33:24;;;;;;;0.20;0.20;;;;;;;;;;4790251;29;20129;-82
2023/04/03 00:48:55;;;;;;;0.20;0.20;;;;;;;;;;4857869;29;20057;-82
2023/04/03 02:11:51;;;;;;;0.20;0.20;;;;;;;;;;4970864;24;20141;-83
2023/04/03 02:14:17;;;;;;;0.20;0.20;;;;;;;;;;4839077;29;20049;-83
2023/04/03 02:16:43;;;;;;;0.20;0.20;;;;;;;;;;4815514;29;20062;-82
2023/04/03 02:19:09;;;;;;;0.20;0.20;;;;;;;;;;4814146;29;20106;-83
2023/04/03 02:21:35;;;;;;;0.20;0.20;;;;;;;;;;4821672;29;20060;-82
2023/04/03 02:24:05;;;;;;;0.20;0.20;;;;;;;;;;4837171;29;20050;-83
2023/04/03 02:26:31;;;;;;;0.20;0.20;;;;;;;;;;4837625;29;20132;-83
2023/04/03 02:28:57;;;;;;;0.20;0.20;;;;;;;;;;4838014;29;20118;-83
2023/04/03 02:37:22;;;;;;;0.20;0.20;;;;;;;;;;5451468;23;20115;-82
2023/04/03 02:39:48;;;;;;;0.20;0.20;;;;;;;;;;4826262;29;20068;-83
2023/04/03 02:42:17;;;;;;;0.20;0.20;;;;;;;;;;4837385;29;20151;-83
2023/04/03 04:23:46;;;;;;;0.20;0.20;;;;;;;;;;5079864;23;20069;-80
2023/04/03 04:26:30;;;;;;;0.20;0.20;;;;;;;;;;4840185;29;20050;-81
2023/04/03 04:42:13;;;;;;;0.20;0.20;;;;;;;;;;5387239;23;20061;-81
2023/04/03 04:44:40;;;;;;;0.20;0.20;;;;;;;;;;4840611;29;20052;-82
2023/04/03 04:47:06;;;;;;;0.20;0.20;;;;;;;;;;4836398;29;20049;-81
2023/04/03 04:49:32;;;;;;;0.20;0.20;;;;;;;;;;4840324;29;20068;-81
2023/04/03 05:04:57;;;;;;;0.20;0.20;;;;;;;;;;5540188;23;20529;-81
2023/04/03 06:12:51;;;;;;;0.20;0.20;;;;;;;;;;4022213;23;20050;-80
2023/04/03 06:56:33;;;;;;;0.20;0.20;;;;;;;;;;4872982;24;20502;-81
2023/04/03 06:58:59;;;;;;;0.20;0.20;;;;;;;;;;4844663;29;20105;-83
2023/04/03 07:01:27;;;;;;;0.20;0.20;;;;;;;;;;4860665;29;20053;-82
2023/04/03 07:03:53;;;;;;;0.20;0.20;;;;;;;;;;4843240;29;20049;-82
2023/04/03 07:06:19;;;;;;;0.20;0.20;;;;;;;;;;4842028;29;20097;-82
2023/04/03 07:08:47;;;;;;;0.20;0.20;;;;;;;;;;4854807;29;20102;-82
2023/04/03 07:19:21;;;;;;;0.20;0.20;;;;;;;;;;5242515;23;20507;-81
2023/04/03 07:21:47;;;;;;;0.20;0.20;;;;;;;;;;4815906;29;20046;-82
2023/04/03 07:24:16;;;;;;;0.20;0.20;;;;;;;;;;4841117;29;20049;-81
2023/04/03 07:26:42;;;;;;;0.20;0.20;;;;;;;;;;4820125;29;20054;-83
2023/04/03 07:29:17;;;;;;;0.20;0.20;;;;;;;;;;4822595;29;20076;-83
2023/04/03 07:35:08;;;;;;;0.20;0.20;;;;;;;;;;4838195;23;20102;-83
2023/04/03 07:37:35;;;;;;;0.20;0.20;;;;;;;;;;4824647;29;20533;-82
2023/04/03 07:53:15;;;;;;;0.20;0.20;;;;;;;;;;4823175;29;20531;-85
2023/04/03 07:58:42;;;;;;;0.20;0.20;;;;;;;;;;4852961;29;19928;-84
2023/04/03 08:01:08;;;;;;;0.20;0.20;;;;;;;;;;4830212;29;20359;-85
2023/04/03 08:03:38;;;;;;;0.20;0.20;;;;;;;;;;4818732;29;20491;-85
2023/04/03 08:28:20;;;;;;;0.20;0.20;;;;;;;;;;5618090;24;20050;-84
2023/04/03 08:34:42;;;;;;;0.17;0.17;;;;;;;;;;4850607;29;20108;-82
2023/04/03 08:37:09;;;;;;;0.20;0.20;;;;;;;;;;4839498;29;20054;-84
2023/04/03 08:46:53;;;;;;;0.20;0.20;;;;;;;;;;4851792;29;20051;-84
2023/04/03 08:49:48;;;;;;;0.20;0.20;;;;;;;;;;4862062;29;20415;-84
2023/04/03 08:52:18;;;;;;;0.20;0.20;;;;;;;;;;4841125;29;20494;-85
2023/04/03 09:01:37;;;;;;;0.20;0.20;;;;;;;;;;4195800;27;20038;-82
2023/04/03 09:32:17;;;;;;;0.20;0.20;;;;;;;;;;4841186;24;20058;-87
2023/04/03 09:34:50;;;;;;;0.20;0.20;;;;;;;;;;4840242;29;20042;-91
2023/04/03 09:40:42;;;;;;;0.20;0.20;;;;;;;;;;4841351;29;20056;-84
2023/04/03 09:43:18;;;;;;;0.20;0.20;;;;;;;;;;4851698;29;20042;-84
2023/04/03 09:52:44;;;;;;;0.20;0.20;;;;;;;;;;4783204;29;20539;-84
2023/04/03 10:26:21;;;;;;;0.10;0.10;;;;;;;;;;4814160;29;20083;-85
2023/04/03 10:29:25;;;;;;;0.20;0.20;;;;;;;;;;4830382;29;20051;-86
2023/04/03 10:32:13;;;;;;;0.20;0.20;;;;;;;;;;4837583;29;20391;-84
2023/04/03 10:35:22;;;;;;;0.13;0.13;;;;;;;;;;4858368;29;20366;-84
2023/04/03 10:38:15;;;;;;;0.20;0.20;;;;;;;;;;4832970;23;20451;-85
2023/04/03 10:51:32;;;;;;;0.20;0.20;;;;;;;;;;4858878;29;20528;-86
2023/04/03 11:11:49;;;;;;;0.20;0.20;;;9.60;96.90;;;;;;4850008;29;20070;-86
2023/04/03 11:14:50;;;;;;;0.10;0.10;;;8.50;95.90;;;;;;4843234;29;20064;-85
2023/04/03 11:24:47;;;;;;;0.20;0.20;;;9.10;95.10;;;;;;4851351;29;20064;-85
2023/04/03 11:42:38;;;;;;;0.20;0.20;;;9.70;94.40;;;;;;4802272;29;20400;-84
2023/04/03 11:45:09;;;;;;;0.20;0.20;;;9.80;93.90;;;;;;4799998;29;20054;-84
2023/04/03 11:56:20;;;;;;;0.13;0.13;;;10.20;94.10;;;;;;4812396;29;20049;-85
2023/04/03 12:41:33;;;;;;;0.20;0.20;;;12.20;91.80;;;;;;4831597;29;19969;-83
2023/04/03 12:44:50;;;;;;;0.10;0.10;;;13.90;91.90;;;;;;4802780;29;20543;-83
2023/04/03 12:47:24;;;;;;;0.10;0.10;;;12.30;91.00;;;;;;4836837;24;20060;-84
2023/04/03 12:49:52;;;;;;;0.20;0.20;;;12.50;90.50;;;;;;4881185;29;20064;-83
2023/04/03 12:52:36;;;;;;;0.17;0.17;;;12.60;90.90;;;;;;4858550;29;20054;-83
2023/04/03 12:55:07;;;;;;;0.20;0.20;;;12.70;91.30;;;;;;4874396;29;20082;-84
2023/04/03 12:57:33;;;;;;;0.20;0.20;;;12.80;91.10;;;;;;4868981;29;20059;-84
2023/04/03 12:59:59;;;;;;;0.20;0.20;;;12.90;91.40;;;;;;4849344;29;20045;-85
2023/04/03 13:02:29;;;;;;;0.15;0.15;;;13.10;91.20;;;;;;4861785;29;20053;-84
2023/04/03 13:05:17;;;;;;;0.20;0.20;;;13.20;90.80;;;;;;4847592;29;20092;-83
2023/04/03 13:08:18;;;;;;;0.10;0.10;;;13.30;90.80;;;;;;4861040;29;20088;-83
2023/04/03 13:11:11;;;;;;;0.10;0.10;;;13.50;90.80;;;;;;4869647;29;20047;-84
2023/04/03 13:13:39;;;;;;;0.10;0.10;;;13.50;90.60;;;;;;4882828;29;20057;-84
2023/04/03 13:16:19;;;;;;;0.20;0.20;;;13.70;91.30;;;;;;4858209;29;20093;-83
2023/04/03 13:18:51;;;;;;;0.20;0.20;;;13.90;91.30;;;;;;4859139;29;20045;-84
2023/04/03 13:21:21;;;;;;;0.20;0.20;;;14.10;90.30;;;;;;4856926;29;20049;-86
2023/04/03 13:23:50;;;;;;;0.13;0.13;;;14.30;91.00;;;;;;4851237;29;20089;-85
2023/04/03 13:26:18;;;;;;;0.20;0.20;;;14.30;91.40;;;;;;4849625;29;20048;-85
2023/04/03 13:28:45;;;;;;;0.20;0.20;;;14.50;91.90;;;;;;4860720;29;20109;-85
2023/04/03 13:31:13;;;;;;;0.20;0.20;;;14.90;91.70;;;;;;4861181;29;20082;-84
2023/04/03 13:34:04;;;;;;;0.13;0.13;;;15.10;91.70;;;;;;4863218;29;20127;-87
2023/04/03 13:40:12;;;;;;;0.20;0.20;;;15.50;91.70;;;;;;4824502;29;20092;-85
2023/04/03 13:42:59;;;;;;;0.20;0.20;;;15.60;91.90;;;;;;4842475;29;20057;-84
2023/04/03 13:45:28;;;;;;;0.20;0.20;;;;;;;;;;4840088;29;20049;-85
2023/04/03 13:48:17;;;;;;;0.20;0.20;;;16.00;93.10;;;;;;4827458;29;20087;-84
2023/04/03 13:54:22;;;;;;;0.20;0.20;;;;;;;;;;4854937;23;20042;-84
2023/04/03 13:57:22;;;;;;;0.10;0.10;;;17.70;95.10;;;;;;4837682;29;20054;-85
2023/04/03 13:59:49;;;;;;;0.20;0.20;;;17.70;95.20;;;;;;4858477;29;20057;-85
2023/04/03 14:02:37;;;;;;;0.20;0.20;;;18.30;94.40;;;;;;4857880;29;20041;-84
2023/04/03 14:05:05;;;;;;;0.20;0.20;;;18.60;94.50;;;;;;4854494;29;20222;-85
2023/04/03 14:07:31;;;;;;;0.20;0.20;;;19.40;95.50;;;;;;4848765;29;20050;-84
2023/04/03 14:09:57;;;;;;;0.30;0.30;;;20.40;96.00;;;;;;4846299;29;20053;-84
2023/04/03 14:12:37;;;;;;;0.10;0.10;;;21.40;95.00;;;;;;4855288;29;20048;-84
2023/04/03 14:15:16;;;;;;;0.20;0.20;;;22.70;96.20;;;;;;4837644;29;20476;-84
2023/04/03 14:17:45;;;;;;;0.20;0.20;;;24.20;94.00;;;;;;4840324;29;20050;-84
2023/04/03 14:20:16;;;;;;;0.20;0.20;;;25.20;92.70;;;;;;4852481;29;20511;-83
2023/04/03 14:22:46;;;;;;;0.20;0.20;;;25.60;91.70;;;;;;4841593;29;20053;-85
2023/04/03 14:25:12;;;;;;;0.20;0.20;;;26.20;87.10;;;;;;4840486;29;20050;-84
2023/04/03 14:27:46;;;;;;;0.20;0.20;;;26.90;85.10;;;;;;4853407;29;20046;-84
2023/04/03 14:30:23;;;;;;;0.20;0.20;;;27.70;85.20;;;;;;4855630;29;20076;-85
2023/04/03 14:32:49;;;;;;;0.20;0.20;;;28.80;79.50;;;;;;4855978;29;20374;-85
2023/04/03 14:35:21;;;;;;;0.20;0.20;;;29.10;72.00;;;;;;4856219;29;20106;-84
2023/04/03 14:37:51;;;;;;;0.20;0.20;;;28.50;70.50;;;;;;4828544;29;20053;-83
2023/04/03 14:40:23;;;;;;;0.20;0.20;;;28.60;71.20;;;;;;4838124;29;20132;-82
2023/04/03 14:42:57;;;;;;;0.20;0.20;;;29.10;72.60;;;;;;4842400;29;20135;-84
2023/04/03 14:45:23;;;;;;;0.20;0.20;;;29.60;71.50;;;;;;4860235;29;20051;-86
2023/04/03 14:47:52;;;;;;;0.20;0.20;;;30.30;69.00;;;;;;4844282;29;20083;-85
2023/04/03 14:50:22;;;;;;;0.20;0.20;;;30.20;67.10;;;;;;4843075;29;20077;-85
2023/04/03 14:52:56;;;;;;;0.20;0.20;;;30.30;66.00;;;;;;4860646;29;20113;-84
2023/04/03 14:55:25;;;;;;;0.20;0.20;;;30.00;62.30;;;;;;4830261;29;20117;-83
2023/04/03 14:57:51;;;;;;;0.20;0.20;;;29.30;62.40;;;;;;4825960;29;20062;-83
2023/04/03 15:00:20;;;;;;;0.20;0.20;;;27.70;57.20;;;;;;4827140;29;20491;-83
2023/04/03 15:02:47;;;;;;;0.20;0.20;;;;;;;;;;4803577;29;20054;-83
2023/04/03 15:05:16;;;;;;;0.17;0.17;;;;;;;;;;4819107;29;20042;-83
2023/04/03 15:07:49;;;;;;;0.20;0.20;;;;;;;;;;4799613;29;20050;-83
2023/04/03 15:10:28;;;;;;;0.20;0.20;;;;;;;;;;4839435;23;21253;-83
2023/04/03 15:13:35;;;;;;;0.20;0.20;;;;;;;;;;4849838;29;20056;-83
2023/04/03 15:16:26;;;;;;;0.20;0.20;;;;;;;;;;4850841;29;20064;-84
2023/04/03 15:18:58;;;;;;;0.20;0.20;;;;;;;;;;4845979;29;20128;-84
2023/04/03 15:21:34;;;;;;;0.20;0.20;;;;;;;;;;4844652;29;20089;-83
2023/04/03 15:24:34;;;;;;;0.20;0.20;;;22.20;63.90;;;;;;4843870;29;20550;-83
2023/04/03 15:27:01;;;;;;;0.20;0.20;;;22.70;64.90;;;;;;4856701;29;20087;-83
2023/04/03 15:29:27;;;;;;;0.20;0.20;;;24.00;58.70;;;;;;4860001;29;20053;-84
2023/04/03 15:31:53;;;;;;;0.20;0.20;;;;;;;;;;4857810;29;20080;-85
2023/04/03 15:34:25;;;;;;;0.20;0.20;;;;;;;;;;4861840;29;20049;-83
2023/04/03 15:37:01;;;;;;;0.20;0.20;;;;;;;;;;4863933;29;20049;-83
2023/04/03 15:39:39;;;;;;;0.20;0.20;;;;;;;;;;4853155;29;20052;-85
2023/04/03 15:42:23;;;;;;;0.13;0.13;;;;;;;;;;4840282;23;20119;-84
2023/04/03 15:44:53;;;;;;;0.20;0.20;;;;;;;;;;4805888;29;20054;-85
2023/04/03 16:43:51;;;;;;;0.15;0.15;;;;;;;;;;5640997;23;20050;-78
2023/04/03 16:46:17;;;;;;;0.20;0.20;;;;;;;;;;4839736;29;20054;-78
2023/04/03 16:48:43;;;;;;;0.10;0.10;;;;;;;;;;4838575;29;20563;-78
2023/04/03 16:51:09;;;;;;;0.10;0.10;;;;;;;;;;4823854;29;20406;-79
2023/04/03 16:53:35;;;;;;;0.17;0.17;;;;;;;;;;4823648;29;20050;-78
2023/04/03 16:56:01;;;;;;;0.10;0.10;;;;;;;;;;4839011;29;20054;-78
2023/04/03 16:58:28;;;;;;;0.10;0.10;;;;;;;;;;4820632;29;20413;-78
2023/04/03 17:00:54;;;;;;;0.20;0.20;;;;;;;;;;4822748;29;20054;-78
2023/04/03 17:03:25;;;;;;;0.20;0.20;;;;;;;;;;4805893;29;20205;-78
2023/04/03 17:05:51;;;;;;;0.20;0.20;;;;;;;;;;4821898;29;20106;-76
2023/04/03 18:07:50;;;;;;;0.20;0.20;;;;;;;;;;4883749;23;20050;-79
2023/04/03 18:10:16;;;;;;;0.20;0.20;;;;;;;;;;4991636;23;20062;-78
2023/04/03 18:12:43;;;;;;;0.20;0.20;;;;;;;;;;4827591;29;20056;-78
2023/04/03 18:15:10;;;;;;;0.20;0.20;;;;;;;;;;4819908;29;20054;-78
2023/04/03 18:30:35;;;;;;;0.15;0.15;;;;;;;;;;5415789;23;20062;-78
2023/04/03 18:33:01;;;;;;;0.20;0.20;;;;;;;;;;4840734;29;20392;-79
2023/04/03 18:35:27;;;;;;;0.20;0.20;;;;;;;;;;4839966;29;20057;-78
2023/04/03 18:37:53;;;;;;;0.20;0.20;;;;;;;;;;4824270;29;20059;-78
2023/04/03 18:40:20;;;;;;;0.20;0.20;;;;;;;;;;4840353;29;20046;-80
2023/04/03 18:42:46;;;;;;;0.20;0.20;;;;;;;;;;4839659;29;20042;-78
2023/04/03 19:47:05;;;;;;;0.20;0.20;;;;;;;;;;5091889;23;20081;-78
2023/04/03 19:49:31;;;;;;;0.20;0.20;;;;;;;;;;4852064;29;20114;-78
2023/04/03 19:51:57;;;;;;;0.20;0.20;;;;;;;;;;4830402;29;20064;-77
2023/04/03 19:54:23;;;;;;;0.20;0.20;;;;;;;;;;4842072;29;20056;-77
2023/04/03 19:56:50;;;;;;;0.20;0.20;;;;;;;;;;4852272;29;20053;-78
2023/04/03 19:59:16;;;;;;;0.13;0.13;;;;;;;;;;4860712;29;20038;-77
2023/04/03 20:01:44;;;;;;;0.20;0.20;;;;;;;;;;4829664;29;20114;-77
2023/04/03 20:04:12;;;;;;;0.20;0.20;;;;;;;;;;4824160;29;20105;-78
2023/04/03 20:06:38;;;;;;;0.20;0.20;;;;;;;;;;4843442;29;20529;-77
2023/04/03 20:16:51;;;;;;;0.20;0.20;;;;;;;;;;5109468;23;20054;-78
2023/04/03 22:01:17;;;;;;;0.20;0.20;;;;;;;;;;4737747;30;20079;-75
2023/04/03 22:03:46;;;;;;;0.20;0.20;;;;;;;;;;4724308;30;20103;-79
2023/04/03 22:06:21;;;;;;;0.20;0.20;;;;;;;;;;4729047;30;20068;-80
2023/04/03 22:09:14;;;;;;;0.20;0.20;;;;;;;;;;4746535;30;20143;-81
2023/04/03 22:17:43;;;;;;;0.20;0.20;;;;;;;;;;4816552;29;20051;-80
2023/04/03 22:20:18;;;;;;;;;;;;;;;;;;4813147;29;20046;-81
2023/04/03 22:23:26;;;;;;;0.20;0.20;;;;;;;;;;4818360;29;21739;-80
2023/04/03 22:25:59;;;;;;;0.20;0.20;;;;;;;;;;4800155;29;20054;-80
2023/04/03 22:31:07;;;;;;;0.20;0.20;;;;;;;;;;4850383;23;20168;-80
2023/04/03 22:33:36;;;;;;;0.20;0.20;;;;;;;;;;4840580;29;20181;-80
2023/04/03 22:36:08;;;;;;;0.20;0.20;;;;;;;;;;4841586;29;20506;-80
2023/04/03 22:38:35;;;;;;;0.20;0.20;;;;;;;;;;4832069;29;20050;-80
2023/04/03 22:41:32;;;;;;;0.20;0.20;;;;;;;;;;4838783;23;20058;-80
2023/04/03 22:44:41;;;;;;;0.25;0.25;;;;;;;;;;4853567;29;20091;-80
2023/04/03 22:47:47;;;;;;;0.20;0.20;;;;;;;;;;4830695;29;20109;-80
2023/04/03 22:50:58;;;;;;;0.20;0.20;;;;;;;;;;4838986;29;20514;-80
2023/04/03 22:53:43;;;;;;;0.20;0.20;;;;;;;;;;4840216;29;20128;-80
2023/04/03 22:56:45;;;;;;;0.20;0.20;;;;;;;;;;4852293;29;20049;-80
2023/04/03 22:59:35;;;;;;;0.20;0.20;;;;;;;;;;4743883;30;20052;-80
2023/04/03 23:08:38;;;;;;;0.20;0.20;;;;;;;;;;5101008;23;20039;-80
2023/04/03 23:25:21;;;;;;;0.20;0.20;;;;;;;;;;4840839;29;19982;-81
2023/04/03 23:31:27;;;;;;;0.20;0.20;;;;;;;;;;4807610;29;20093;-81
2023/04/03 23:34:18;;;;;;;0.30;0.30;;;;;;;;;;4807482;29;20113;-80
2023/04/03 23:46:49;;;;;;;0.30;0.30;;;;;;;;;;4871249;24;20035;-80
2023/04/03 23:49:15;;;;;;;0.20;0.20;;;;;;;;;;4832832;29;20049;-80
2023/04/03 23:52:19;;;;;;;0.20;0.20;;;;;;;;;;4840181;29;20078;-81
2023/04/03 23:54:48;;;;;;;0.20;0.20;;;;;;;;;;4820956;29;20061;-81
2023/04/03 23:57:20;;;;;;;0.20;0.20;;;;;;;;;;4836213;29;20053;-81
2023/04/03 23:59:46;;;;;;;0.28;0.28;;;;;;;;;;4841260;29;20145;-81
